Terminal Aerodrome Forecast
Issued by NWS

Home | Current Version | Previous Version | Text Only | Print | Product List | Glossary On
Versions: 1 2 3 4 5 6 7 8 9 10 11 12 13 14 15 16 17 18 19
000
FTUS43 KGRR 041151
TAFBTL
TAF
KBTL 041151Z 0412/0512 14006KT P6SM OVC035
     FM041500 14008KT 6SM HZ OVC025
     FM041800 15009KT 5SM -SN BR OVC015
     FM042000 15009KT 2SM -SN BR OVC009
     FM042200 16009KT 3/4SM -SN BR OVC004
     FM050400 23008KT 3SM -SN BR OVC009
     FM050600 26007KT 6SM BR OVC015=

USA.gov is the U.S. government's official web portal to all federal, state and local government web resources and services.